Cathlamet, Washington
Current Conditions -  °F | °C
As of 1:55 PM on Thursday 27 Nov 2014 (Local Time) from KKLS Reporting Station
Overcast Overcast  
Wind Chill: 55°   Ceiling: 4700
Heat Index: 55°   Visibility: 10mi
Dew Point: 50°   Wind: 13mph
Humidity: 82%   Direction: 150°SSE
Pressure: 29.92"   Gusts: 24mph
Location:  46.2°N, 123.38°W
Report Text: KKLS 272155Z 15011G21KT 10SM BKN047 BKN060 OVC070 13/10 A2992 RMK AO1
Loading
Personal Weather Stations






























Interactive Weather Map New forecast layout! Learn more

10-Day Weather Forecast

Advertisements
Track Severe Weather on mobile